Estación Meteorológica Peña el Pijo (Robertgarden) [ 10/16/18 03:48:50 CEST ]

Fecha Hora Presion(HPa) Temp (°C) Humedad % Rocio (°C) Viento ( m/s) Direccion Lluvia 1Hora(mm) Lluvia 24H(mm) LLuvia Total(mm)
2018-Aug-20 01:01:59 1014.300 17.3 84 14.6         293.18
2018-Aug-20 02:01:46 1014.200 16.1 84 13.4         293.18
2018-Aug-20 03:01:17 1013.800 14.9 85 12.4         293.18
2018-Aug-20 04:01:18 1013.700 13.9 86 11.6         293.18
2018-Aug-20 05:05:08 1013.500 13.1 87 11.0         293.18
2018-Aug-20 06:01:55 1013.400 12.3 87 10.2         293.18
2018-Aug-20 07:01:49 1013.400 11.3 88 9.4         293.18
2018-Aug-20 08:01:44 1013.400 10.5 88 8.6         293.18
2018-Aug-20 09:01:50 1013.500 14.9 90 13.3         293.18
2018-Aug-20 10:01:36 1013.500 20.2 77 16.0         293.18
2018-Aug-20 11:01:57 1013.500 25.1 45 12.3         293.18
2018-Aug-20 12:02:06 1013.700 27.1 39 11.9         293.18
2018-Aug-20 13:01:51 1013.900 28.9 30 9.6 2.0 WSW     293.18
2018-Aug-20 14:01:47 1013.500 28.9 29 9.0         293.18
2018-Aug-20 15:01:50 1013.200 29.2 27 8.1         293.18
2018-Aug-20 16:01:53 1012.600 30.2 26 8.4         293.18
2018-Aug-20 17:01:34 1012.000 31.0 28 10.2         293.18
2018-Aug-20 18:01:38 1011.700 29.4 28 8.9         293.18
2018-Aug-20 19:01:47 1011.400 27.9 31 9.1         293.18
2018-Aug-20 20:01:42 1011.500 24.5 36 8.4 1.8 NNE     293.18
2018-Aug-20 21:01:37 1011.900 22.3 47 10.5         293.18
2018-Aug-20 22:01:38 1012.300 19.8 56 10.8         293.18
2018-Aug-20 23:01:29 1012.800 18.2 63 11.0         293.18

Temperatura Máxima:31°    Temperatura Mínima:10°
Presión Máxima:1014.300 Hpa    Presión Mínima:1011.400 Hpa


Volver